sensor_id;sensor_type;location;lat;lon;timestamp;P1;durP1;ratioP1;P2;durP2;ratioP2
37169;SDS011;23062;13.952;100.608;2024-03-08T00:02:29;0.98;;;9.69;;
37169;SDS011;23062;13.952;100.608;2024-03-08T00:07:15;0.73;;;8.96;;
37169;SDS011;23062;13.952;100.608;2024-03-08T00:11:53;0.43;;;10.51;;
37169;SDS011;23062;13.952;100.608;2024-03-08T00:16:38;-2.32;;;10.92;;
37169;SDS011;23062;13.952;100.608;2024-03-08T00:21:18;-2.62;;;10.50;;
37169;SDS011;23062;13.952;100.608;2024-03-08T00:26:03;-2.97;;;10.78;;
37169;SDS011;23062;13.952;100.608;2024-03-08T00:30:46;-2.83;;;10.48;;
37169;SDS011;23062;13.952;100.608;2024-03-08T00:35:31;-2.62;;;10.51;;
37169;SDS011;23062;13.952;100.608;2024-03-08T00:40:16;-2.75;;;9.46;;
37169;SDS011;23062;13.952;100.608;2024-03-08T00:45:01;-1.71;;;10.39;;
37169;SDS011;23062;13.952;100.608;2024-03-08T00:49:47;-0.49;;;11.37;;
37169;SDS011;23062;13.952;100.608;2024-03-08T00:54:30;-0.19;;;11.10;;
37169;SDS011;23062;13.952;100.608;2024-03-08T00:59:08;0.25;;;10.19;;
37169;SDS011;23062;13.952;100.608;2024-03-08T01:03:54;0.45;;;10.59;;
37169;SDS011;23062;13.952;100.608;2024-03-08T01:08:40;0.78;;;10.66;;
37169;SDS011;23062;13.952;100.608;2024-03-08T01:13:26;1.02;;;12.07;;
37169;SDS011;23062;13.952;100.608;2024-03-08T01:18:09;1.38;;;12.15;;
37169;SDS011;23062;13.952;100.608;2024-03-08T01:22:51;1.21;;;11.44;;
37169;SDS011;23062;13.952;100.608;2024-03-08T01:27:33;1.85;;;12.27;;
37169;SDS011;23062;13.952;100.608;2024-03-08T01:32:11;1.78;;;11.56;;
37169;SDS011;23062;13.952;100.608;2024-03-08T01:36:48;1.83;;;10.25;;
37169;SDS011;23062;13.952;100.608;2024-03-08T01:41:34;2.10;;;11.33;;
37169;SDS011;23062;13.952;100.608;2024-03-08T01:46:19;3.30;;;11.27;;
37169;SDS011;23062;13.952;100.608;2024-03-08T01:51:05;4.34;;;10.82;;
37169;SDS011;23062;13.952;100.608;2024-03-08T01:55:52;4.06;;;9.74;;
37169;SDS011;23062;13.952;100.608;2024-03-08T02:00:37;4.97;;;10.62;;
37169;SDS011;23062;13.952;100.608;2024-03-08T02:05:21;4.57;;;10.21;;
37169;SDS011;23062;13.952;100.608;2024-03-08T02:10:08;5.43;;;9.75;;
37169;SDS011;23062;13.952;100.608;2024-03-08T02:14:52;6.21;;;9.85;;
37169;SDS011;23062;13.952;100.608;2024-03-08T02:19:38;5.63;;;9.14;;
37169;SDS011;23062;13.952;100.608;2024-03-08T02:24:23;6.53;;;9.66;;
37169;SDS011;23062;13.952;100.608;2024-03-08T02:29:09;6.90;;;9.70;;
37169;SDS011;23062;13.952;100.608;2024-03-08T02:33:47;7.39;;;10.83;;
37169;SDS011;23062;13.952;100.608;2024-03-08T02:38:32;7.45;;;10.49;;
37169;SDS011;23062;13.952;100.608;2024-03-08T02:43:17;7.79;;;11.03;;
37169;SDS011;23062;13.952;100.608;2024-03-08T02:48:02;7.79;;;11.03;;
37169;SDS011;23062;13.952;100.608;2024-03-08T02:52:47;8.28;;;11.50;;
37169;SDS011;23062;13.952;100.608;2024-03-08T02:57:32;10.10;;;11.88;;
37169;SDS011;23062;13.952;100.608;2024-03-08T03:02:14;10.87;;;13.14;;
37169;SDS011;23062;13.952;100.608;2024-03-08T03:06:56;10.98;;;13.82;;
37169;SDS011;23062;13.952;100.608;2024-03-08T03:11:44;12.11;;;13.97;;
37169;SDS011;23062;13.952;100.608;2024-03-08T03:16:26;11.36;;;13.91;;
37169;SDS011;23062;13.952;100.608;2024-03-08T03:21:10;10.47;;;11.91;;
37169;SDS011;23062;13.952;100.608;2024-03-08T03:25:55;10.70;;;12.32;;
37169;SDS011;23062;13.952;100.608;2024-03-08T03:30:42;10.86;;;12.65;;
37169;SDS011;23062;13.952;100.608;2024-03-08T03:35:29;10.84;;;12.42;;
37169;SDS011;23062;13.952;100.608;2024-03-08T03:40:07;11.64;;;14.05;;
37169;SDS011;23062;13.952;100.608;2024-03-08T03:44:49;12.61;;;13.79;;
37169;SDS011;23062;13.952;100.608;2024-03-08T03:49:34;12.13;;;13.02;;
37169;SDS011;23062;13.952;100.608;2024-03-08T03:54:11;12.40;;;13.81;;
37169;SDS011;23062;13.952;100.608;2024-03-08T03:58:57;11.93;;;13.41;;
37169;SDS011;23062;13.952;100.608;2024-03-08T04:03:35;13.31;;;13.22;;
37169;SDS011;23062;13.952;100.608;2024-03-08T04:08:16;13.25;;;12.92;;
37169;SDS011;23062;13.952;100.608;2024-03-08T04:13:02;14.39;;;14.37;;
37169;SDS011;23062;13.952;100.608;2024-03-08T04:17:48;13.90;;;12.99;;
37169;SDS011;23062;13.952;100.608;2024-03-08T04:22:32;14.23;;;13.61;;
37169;SDS011;23062;13.952;100.608;2024-03-08T04:27:14;14.94;;;13.23;;
37169;SDS011;23062;13.952;100.608;2024-03-08T04:31:58;15.49;;;15.01;;
37169;SDS011;23062;13.952;100.608;2024-03-08T04:36:40;15.10;;;14.09;;
37169;SDS011;23062;13.952;100.608;2024-03-08T04:41:26;15.12;;;13.92;;
37169;SDS011;23062;13.952;100.608;2024-03-08T04:46:10;15.91;;;13.65;;
37169;SDS011;23062;13.952;100.608;2024-03-08T04:50:48;16.74;;;14.39;;
37169;SDS011;23062;13.952;100.608;2024-03-08T04:55:32;15.84;;;14.37;;
37169;SDS011;23062;13.952;100.608;2024-03-08T05:00:19;14.55;;;13.44;;
37169;SDS011;23062;13.952;100.608;2024-03-08T05:05:04;16.40;;;14.31;;
37169;SDS011;23062;13.952;100.608;2024-03-08T05:09:52;16.94;;;14.72;;
37169;SDS011;23062;13.952;100.608;2024-03-08T05:14:38;14.88;;;14.13;;
37169;SDS011;23062;13.952;100.608;2024-03-08T05:19:25;15.77;;;14.62;;
37169;SDS011;23062;13.952;100.608;2024-03-08T05:24:12;18.01;;;15.34;;
37169;SDS011;23062;13.952;100.608;2024-03-08T05:28:58;17.13;;;14.21;;
37169;SDS011;23062;13.952;100.608;2024-03-08T05:33:45;18.65;;;15.11;;
37169;SDS011;23062;13.952;100.608;2024-03-08T05:38:32;18.70;;;15.44;;
37169;SDS011;23062;13.952;100.608;2024-03-08T05:43:13;19.18;;;14.59;;
37169;SDS011;23062;13.952;100.608;2024-03-08T05:47:51;19.38;;;14.37;;
37169;SDS011;23062;13.952;100.608;2024-03-08T05:52:36;19.06;;;14.30;;
37169;SDS011;23062;13.952;100.608;2024-03-08T05:57:20;18.73;;;12.43;;
37169;SDS011;23062;13.952;100.608;2024-03-08T06:01:57;19.50;;;12.86;;
37169;SDS011;23062;13.952;100.608;2024-03-08T06:06:34;17.43;;;11.95;;
37169;SDS011;23062;13.952;100.608;2024-03-08T06:11:12;16.38;;;11.75;;
37169;SDS011;23062;13.952;100.608;2024-03-08T06:15:50;18.12;;;12.80;;
37169;SDS011;23062;13.952;100.608;2024-03-08T06:20:35;14.35;;;9.88;;
37169;SDS011;23062;13.952;100.608;2024-03-08T06:25:20;13.82;;;9.89;;
37169;SDS011;23062;13.952;100.608;2024-03-08T06:30:03;15.39;;;9.59;;
37169;SDS011;23062;13.952;100.608;2024-03-08T06:34:48;15.22;;;9.55;;
37169;SDS011;23062;13.952;100.608;2024-03-08T06:39:31;15.11;;;10.06;;
37169;SDS011;23062;13.952;100.608;2024-03-08T06:44:15;13.89;;;9.00;;
37169;SDS011;23062;13.952;100.608;2024-03-08T06:49:01;15.22;;;9.95;;
37169;SDS011;23062;13.952;100.608;2024-03-08T06:53:49;15.80;;;10.47;;
37169;SDS011;23062;13.952;100.608;2024-03-08T06:58:32;15.33;;;9.97;;
37169;SDS011;23062;13.952;100.608;2024-03-08T07:03:16;13.59;;;8.54;;
37169;SDS011;23062;13.952;100.608;2024-03-08T07:07:56;13.96;;;9.16;;
37169;SDS011;23062;13.952;100.608;2024-03-08T07:12:32;14.54;;;8.77;;
37169;SDS011;23062;13.952;100.608;2024-03-08T07:17:09;13.88;;;8.21;;
37169;SDS011;23062;13.952;100.608;2024-03-08T07:21:52;13.19;;;8.21;;
37169;SDS011;23062;13.952;100.608;2024-03-08T07:26:36;14.25;;;8.30;;
37169;SDS011;23062;13.952;100.608;2024-03-08T07:31:15;12.05;;;6.75;;
37169;SDS011;23062;13.952;100.608;2024-03-08T07:36:01;11.48;;;6.78;;
37169;SDS011;23062;13.952;100.608;2024-03-08T07:40:39;12.79;;;7.49;;
37169;SDS011;23062;13.952;100.608;2024-03-08T07:45:26;11.02;;;6.28;;
37169;SDS011;23062;13.952;100.608;2024-03-08T07:50:11;10.62;;;5.78;;
37169;SDS011;23062;13.952;100.608;2024-03-08T07:54:56;12.95;;;6.95;;
37169;SDS011;23062;13.952;100.608;2024-03-08T07:59:33;13.06;;;6.98;;
37169;SDS011;23062;13.952;100.608;2024-03-08T08:04:17;11.33;;;6.35;;
37169;SDS011;23062;13.952;100.608;2024-03-08T08:09:02;12.59;;;6.87;;
37169;SDS011;23062;13.952;100.608;2024-03-08T08:13:50;10.86;;;6.24;;
37169;SDS011;23062;13.952;100.608;2024-03-08T08:18:33;13.58;;;7.34;;
37169;SDS011;23062;13.952;100.608;2024-03-08T08:23:13;10.38;;;5.57;;
37169;SDS011;23062;13.952;100.608;2024-03-08T08:27:52;10.64;;;6.58;;
37169;SDS011;23062;13.952;100.608;2024-03-08T08:32:38;11.51;;;7.57;;
37169;SDS011;23062;13.952;100.608;2024-03-08T08:37:24;10.61;;;6.96;;
37169;SDS011;23062;13.952;100.608;2024-03-08T08:42:09;13.89;;;9.00;;
37169;SDS011;23062;13.952;100.608;2024-03-08T08:46:54;12.63;;;8.32;;
37169;SDS011;23062;13.952;100.608;2024-03-08T08:51:39;11.71;;;8.24;;
37169;SDS011;23062;13.952;100.608;2024-03-08T08:56:16;12.65;;;8.71;;
37169;SDS011;23062;13.952;100.608;2024-03-08T09:00:55;12.38;;;8.64;;
37169;SDS011;23062;13.952;100.608;2024-03-08T09:05:41;10.22;;;7.63;;
37169;SDS011;23062;13.952;100.608;2024-03-08T09:10:21;10.82;;;7.52;;
37169;SDS011;23062;13.952;100.608;2024-03-08T09:15:06;11.13;;;8.47;;
37169;SDS011;23062;13.952;100.608;2024-03-08T09:19:47;11.39;;;8.53;;
37169;SDS011;23062;13.952;100.608;2024-03-08T09:24:25;10.10;;;7.37;;
37169;SDS011;23062;13.952;100.608;2024-03-08T09:29:03;11.39;;;8.30;;
37169;SDS011;23062;13.952;100.608;2024-03-08T09:33:48;11.24;;;9.24;;
37169;SDS011;23062;13.952;100.608;2024-03-08T09:38:30;10.41;;;7.81;;
37169;SDS011;23062;13.952;100.608;2024-03-08T09:43:15;10.31;;;8.27;;
37169;SDS011;23062;13.952;100.608;2024-03-08T09:47:53;10.60;;;8.23;;
37169;SDS011;23062;13.952;100.608;2024-03-08T09:52:32;11.59;;;9.70;;
37169;SDS011;23062;13.952;100.608;2024-03-08T09:57:18;9.58;;;7.72;;
37169;SDS011;23062;13.952;100.608;2024-03-08T10:02:03;10.91;;;8.19;;
37169;SDS011;23062;13.952;100.608;2024-03-08T10:06:52;10.91;;;8.67;;
37169;SDS011;23062;13.952;100.608;2024-03-08T10:11:37;8.36;;;6.72;;
37169;SDS011;23062;13.952;100.608;2024-03-08T10:16:23;8.77;;;6.72;;
37169;SDS011;23062;13.952;100.608;2024-03-08T10:21:03;9.39;;;7.67;;
37169;SDS011;23062;13.952;100.608;2024-03-08T10:25:46;9.52;;;7.22;;
37169;SDS011;23062;13.952;100.608;2024-03-08T10:30:34;7.61;;;5.84;;
37169;SDS011;23062;13.952;100.608;2024-03-08T10:35:13;7.26;;;5.78;;
37169;SDS011;23062;13.952;100.608;2024-03-08T10:40:05;8.95;;;6.72;;
37169;SDS011;23062;13.952;100.608;2024-03-08T10:45:11;7.92;;;6.21;;
37169;SDS011;23062;13.952;100.608;2024-03-08T10:50:07;8.29;;;6.67;;
37169;SDS011;23062;13.952;100.608;2024-03-08T10:54:49;7.76;;;6.17;;
37169;SDS011;23062;13.952;100.608;2024-03-08T10:59:35;7.65;;;6.14;;
37169;SDS011;23062;13.952;100.608;2024-03-08T11:04:21;8.41;;;6.60;;
37169;SDS011;23062;13.952;100.608;2024-03-08T11:09:31;6.54;;;5.98;;
37169;SDS011;23062;13.952;100.608;2024-03-08T11:13:50;8.10;;;6.90;;
37169;SDS011;23062;13.952;100.608;2024-03-08T11:18:37;6.69;;;5.92;;
37169;SDS011;23062;13.952;100.608;2024-03-08T11:23:16;5.97;;;5.39;;
37169;SDS011;23062;13.952;100.608;2024-03-08T11:32:57;6.15;;;5.80;;
37169;SDS011;23062;13.952;100.608;2024-03-08T11:37:45;5.99;;;5.76;;
37169;SDS011;23062;13.952;100.608;2024-03-08T11:42:31;5.79;;;6.16;;
37169;SDS011;23062;13.952;100.608;2024-03-08T11:47:17;6.06;;;6.15;;
37169;SDS011;23062;13.952;100.608;2024-03-08T11:52:01;5.50;;;5.73;;
37169;SDS011;23062;13.952;100.608;2024-03-08T11:56:45;6.11;;;6.16;;
37169;SDS011;23062;13.952;100.608;2024-03-08T12:01:31;6.48;;;6.61;;
37169;SDS011;23062;13.952;100.608;2024-03-08T12:06:16;5.81;;;6.16;;
37169;SDS011;23062;13.952;100.608;2024-03-08T12:10:58;6.84;;;7.06;;
37169;SDS011;23062;13.952;100.608;2024-03-08T12:15:39;7.08;;;7.48;;
37169;SDS011;23062;13.952;100.608;2024-03-08T12:20:23;7.07;;;7.04;;
37169;SDS011;23062;13.952;100.608;2024-03-08T12:25:11;6.81;;;6.69;;
37169;SDS011;23062;13.952;100.608;2024-03-08T12:29:57;7.08;;;6.67;;
37169;SDS011;23062;13.952;100.608;2024-03-08T12:34:40;7.55;;;7.15;;
37169;SDS011;23062;13.952;100.608;2024-03-08T12:39:29;7.72;;;7.55;;
37169;SDS011;23062;13.952;100.608;2024-03-08T12:44:13;7.99;;;7.98;;
37169;SDS011;23062;13.952;100.608;2024-03-08T12:48:51;8.18;;;7.95;;
37169;SDS011;23062;13.952;100.608;2024-03-08T12:53:32;8.55;;;8.77;;
37169;SDS011;23062;13.952;100.608;2024-03-08T12:58:20;6.87;;;7.43;;
37169;SDS011;23062;13.952;100.608;2024-03-08T13:03:07;7.59;;;8.25;;
37169;SDS011;23062;13.952;100.608;2024-03-08T13:07:52;7.49;;;8.16;;
37169;SDS011;23062;13.952;100.608;2024-03-08T13:12:36;7.42;;;8.14;;
37169;SDS011;23062;13.952;100.608;2024-03-08T13:17:14;6.68;;;7.74;;
37169;SDS011;23062;13.952;100.608;2024-03-08T13:22:00;6.01;;;6.86;;
37169;SDS011;23062;13.952;100.608;2024-03-08T13:26:50;5.84;;;6.46;;
37169;SDS011;23062;13.952;100.608;2024-03-08T13:31:37;6.32;;;6.86;;
37169;SDS011;23062;13.952;100.608;2024-03-08T13:36:14;6.02;;;6.43;;
37169;SDS011;23062;13.952;100.608;2024-03-08T13:41:00;6.00;;;6.85;;
37169;SDS011;23062;13.952;100.608;2024-03-08T13:45:46;5.88;;;6.40;;
37169;SDS011;23062;13.952;100.608;2024-03-08T13:50:34;5.83;;;6.81;;
37169;SDS011;23062;13.952;100.608;2024-03-08T13:55:21;4.92;;;5.94;;
37169;SDS011;23062;13.952;100.608;2024-03-08T14:00:06;5.74;;;6.79;;
37169;SDS011;23062;13.952;100.608;2024-03-08T14:04:52;5.41;;;6.35;;
37169;SDS011;23062;13.952;100.608;2024-03-08T14:09:38;4.51;;;5.49;;
37169;SDS011;23062;13.952;100.608;2024-03-08T14:14:16;5.37;;;6.34;;
37169;SDS011;23062;13.952;100.608;2024-03-08T14:19:02;4.98;;;5.89;;
37169;SDS011;23062;13.952;100.608;2024-03-08T14:23:44;5.58;;;6.75;;
37169;SDS011;23062;13.952;100.608;2024-03-08T14:28:30;6.31;;;6.80;;
37169;SDS011;23062;13.952;100.608;2024-03-08T14:33:07;6.43;;;7.68;;
37169;SDS011;23062;13.952;100.608;2024-03-08T14:37:50;6.69;;;7.67;;
37169;SDS011;23062;13.952;100.608;2024-03-08T14:42:37;6.10;;;7.24;;
37169;SDS011;23062;13.952;100.608;2024-03-08T14:47:24;6.54;;;7.21;;
37169;SDS011;23062;13.952;100.608;2024-03-08T14:52:02;6.05;;;7.23;;
37169;SDS011;23062;13.952;100.608;2024-03-08T14:56:41;5.99;;;7.21;;
37169;SDS011;23062;13.952;100.608;2024-03-08T15:01:28;5.86;;;7.18;;
37169;SDS011;23062;13.952;100.608;2024-03-08T15:06:14;7.33;;;8.90;;
37169;SDS011;23062;13.952;100.608;2024-03-08T15:11:02;7.63;;;8.49;;
37169;SDS011;23062;13.952;100.608;2024-03-08T15:15:47;6.53;;;7.63;;
37169;SDS011;23062;13.952;100.608;2024-03-08T15:20:35;5.41;;;6.35;;
37169;SDS011;23062;13.952;100.608;2024-03-08T15:25:22;6.00;;;7.21;;
37169;SDS011;23062;13.952;100.608;2024-03-08T15:30:08;7.13;;;8.07;;
37169;SDS011;23062;13.952;100.608;2024-03-08T15:34:54;6.46;;;7.62;;
37169;SDS011;23062;13.952;100.608;2024-03-08T15:39:40;5.98;;;7.21;;
37169;SDS011;23062;13.952;100.608;2024-03-08T15:44:24;5.99;;;6.79;;
37169;SDS011;23062;13.952;100.608;2024-03-08T15:49:03;6.76;;;7.62;;
37169;SDS011;23062;13.952;100.608;2024-03-08T15:53:47;6.73;;;7.62;;
37169;SDS011;23062;13.952;100.608;2024-03-08T15:58:37;5.96;;;7.20;;
37169;SDS011;23062;13.952;100.608;2024-03-08T16:03:22;5.95;;;6.78;;
37169;SDS011;23062;13.952;100.608;2024-03-08T16:08:09;6.71;;;7.61;;
37169;SDS011;23062;13.952;100.608;2024-03-08T16:12:56;5.78;;;7.11;;
37169;SDS011;23062;13.952;100.608;2024-03-08T16:17:39;5.41;;;6.78;;
37169;SDS011;23062;13.952;100.608;2024-03-08T16:22:27;6.22;;;7.62;;
37169;SDS011;23062;13.952;100.608;2024-03-08T16:27:06;5.93;;;7.20;;
37169;SDS011;23062;13.952;100.608;2024-03-08T16:31:51;6.04;;;7.22;;
37169;SDS011;23062;13.952;100.608;2024-03-08T16:36:37;5.93;;;7.20;;
37169;SDS011;23062;13.952;100.608;2024-03-08T16:41:24;5.34;;;5.94;;
37169;SDS011;23062;13.952;100.608;2024-03-08T16:46:07;5.73;;;6.79;;
37169;SDS011;23062;13.952;100.608;2024-03-08T16:50:47;5.92;;;6.77;;
37169;SDS011;23062;13.952;100.608;2024-03-08T16:55:34;5.73;;;6.79;;
37169;SDS011;23062;13.952;100.608;2024-03-08T17:04:59;6.35;;;6.81;;
37169;SDS011;23062;13.952;100.608;2024-03-08T17:09:45;6.27;;;7.21;;
37169;SDS011;23062;13.952;100.608;2024-03-08T17:14:32;5.76;;;6.80;;
37169;SDS011;23062;13.952;100.608;2024-03-08T17:19:20;5.60;;;6.34;;
37169;SDS011;23062;13.952;100.608;2024-03-08T17:24:02;5.59;;;6.76;;
37169;SDS011;23062;13.952;100.608;2024-03-08T17:28:46;6.35;;;7.59;;
37169;SDS011;23062;13.952;100.608;2024-03-08T17:33:25;7.01;;;8.04;;
37169;SDS011;23062;13.952;100.608;2024-03-08T17:38:12;6.15;;;7.61;;
37169;SDS011;23062;13.952;100.608;2024-03-08T17:42:53;5.39;;;6.35;;
37169;SDS011;23062;13.952;100.608;2024-03-08T17:47:36;6.56;;;7.64;;
37169;SDS011;23062;13.952;100.608;2024-03-08T17:52:21;5.98;;;6.78;;
37169;SDS011;23062;13.952;100.608;2024-03-08T17:57:07;5.70;;;6.36;;
37169;SDS011;23062;13.952;100.608;2024-03-08T18:01:47;5.66;;;6.77;;
37169;SDS011;23062;13.952;100.608;2024-03-08T18:06:33;5.63;;;6.34;;
37169;SDS011;23062;13.952;100.608;2024-03-08T18:11:20;6.44;;;7.19;;
37169;SDS011;23062;13.952;100.608;2024-03-08T18:16:06;5.89;;;6.76;;
37169;SDS011;23062;13.952;100.608;2024-03-08T18:20:53;5.89;;;6.76;;
37169;SDS011;23062;13.952;100.608;2024-03-08T18:25:41;4.99;;;6.32;;
37169;SDS011;23062;13.952;100.608;2024-03-08T18:30:26;5.45;;;6.72;;
37169;SDS011;23062;13.952;100.608;2024-03-08T18:35:08;6.39;;;7.54;;
37169;SDS011;23062;13.952;100.608;2024-03-08T18:39:55;6.17;;;7.13;;
37169;SDS011;23062;13.952;100.608;2024-03-08T18:44:33;5.66;;;6.71;;
37169;SDS011;23062;13.952;100.608;2024-03-08T18:49:19;6.49;;;7.98;;
37169;SDS011;23062;13.952;100.608;2024-03-08T18:54:05;4.36;;;5.45;;
37169;SDS011;23062;13.952;100.608;2024-03-08T18:58:49;5.58;;;6.69;;
37169;SDS011;23062;13.952;100.608;2024-03-08T19:03:35;5.88;;;6.70;;
37169;SDS011;23062;13.952;100.608;2024-03-08T19:08:14;5.48;;;6.73;;
37169;SDS011;23062;13.952;100.608;2024-03-08T19:12:56;6.15;;;7.18;;
37169;SDS011;23062;13.952;100.608;2024-03-08T19:17:41;4.80;;;5.49;;
37169;SDS011;23062;13.952;100.608;2024-03-08T19:22:32;6.26;;;7.21;;
37169;SDS011;23062;13.952;100.608;2024-03-08T19:27:18;5.72;;;6.79;;
37169;SDS011;23062;13.952;100.608;2024-03-08T19:32:03;5.71;;;6.36;;
37169;SDS011;23062;13.952;100.608;2024-03-08T19:36:52;5.78;;;6.80;;
37169;SDS011;23062;13.952;100.608;2024-03-08T19:41:38;5.78;;;6.80;;
37169;SDS011;23062;13.952;100.608;2024-03-08T19:46:23;5.74;;;6.79;;
37169;SDS011;23062;13.952;100.608;2024-03-08T19:51:07;5.65;;;6.35;;
37169;SDS011;23062;13.952;100.608;2024-03-08T19:55:52;5.96;;;6.78;;
37169;SDS011;23062;13.952;100.608;2024-03-08T20:00:38;6.14;;;6.76;;
37169;SDS011;23062;13.952;100.608;2024-03-08T20:05:23;6.07;;;7.17;;
37169;SDS011;23062;13.952;100.608;2024-03-08T20:10:09;6.16;;;7.19;;
37169;SDS011;23062;13.952;100.608;2024-03-08T20:14:57;6.33;;;7.59;;
37169;SDS011;23062;13.952;100.608;2024-03-08T20:19:42;5.29;;;5.90;;
37169;SDS011;23062;13.952;100.608;2024-03-08T20:24:27;5.34;;;6.76;;
37169;SDS011;23062;13.952;100.608;2024-03-08T20:29:15;6.38;;;7.60;;
37169;SDS011;23062;13.952;100.608;2024-03-08T20:34:00;5.96;;;6.78;;
37169;SDS011;23062;13.952;100.608;2024-03-08T20:38:44;6.23;;;7.20;;
37169;SDS011;23062;13.952;100.608;2024-03-08T20:43:29;5.82;;;6.81;;
37169;SDS011;23062;13.952;100.608;2024-03-08T20:48:15;6.80;;;7.63;;
37169;SDS011;23062;13.952;100.608;2024-03-08T20:52:57;6.28;;;7.22;;
37169;SDS011;23062;13.952;100.608;2024-03-08T20:57:43;6.76;;;7.62;;
37169;SDS011;23062;13.952;100.608;2024-03-08T21:02:27;5.94;;;7.20;;
37169;SDS011;23062;13.952;100.608;2024-03-08T21:07:12;6.87;;;8.01;;
37169;SDS011;23062;13.952;100.608;2024-03-08T21:11:54;6.72;;;7.62;;
37169;SDS011;23062;13.952;100.608;2024-03-08T21:16:42;5.88;;;7.18;;
37169;SDS011;23062;13.952;100.608;2024-03-08T21:21:26;5.80;;;6.74;;
37169;SDS011;23062;13.952;100.608;2024-03-08T21:26:10;5.78;;;6.74;;
37169;SDS011;23062;13.952;100.608;2024-03-08T21:30:57;6.10;;;7.17;;
37169;SDS011;23062;13.952;100.608;2024-03-08T21:35:40;5.48;;;6.73;;
37169;SDS011;23062;13.952;100.608;2024-03-08T21:40:25;6.69;;;7.97;;
37169;SDS011;23062;13.952;100.608;2024-03-08T21:45:11;6.00;;;7.57;;
37169;SDS011;23062;13.952;100.608;2024-03-08T21:49:56;6.34;;;7.17;;
37169;SDS011;23062;13.952;100.608;2024-03-08T21:54:40;6.66;;;7.60;;
37169;SDS011;23062;13.952;100.608;2024-03-08T21:59:24;6.60;;;7.65;;
37169;SDS011;23062;13.952;100.608;2024-03-08T22:04:10;6.94;;;7.66;;
37169;SDS011;23062;13.952;100.608;2024-03-08T22:09:05;6.07;;;7.23;;
37169;SDS011;23062;13.952;100.608;2024-03-08T22:13:55;7.93;;;8.55;;
37169;SDS011;23062;13.952;100.608;2024-03-08T22:18:48;7.40;;;8.13;;
37169;SDS011;23062;13.952;100.608;2024-03-08T22:23:26;5.97;;;7.86;;
37169;SDS011;23062;13.952;100.608;2024-03-08T22:28:10;5.70;;;8.20;;
37169;SDS011;23062;13.952;100.608;2024-03-08T22:32:48;5.58;;;8.17;;
37169;SDS011;23062;13.952;100.608;2024-03-08T22:37:39;5.60;;;7.72;;
37169;SDS011;23062;13.952;100.608;2024-03-08T22:42:25;5.64;;;8.13;;
37169;SDS011;23062;13.952;100.608;2024-03-08T22:47:12;5.76;;;8.11;;
37169;SDS011;23062;13.952;100.608;2024-03-08T22:51:58;5.55;;;8.11;;
37169;SDS011;23062;13.952;100.608;2024-03-08T22:56:45;5.83;;;8.48;;
37169;SDS011;23062;13.952;100.608;2024-03-08T23:01:29;5.11;;;7.25;;
37169;SDS011;23062;13.952;100.608;2024-03-08T23:06:13;5.79;;;8.07;;
37169;SDS011;23062;13.952;100.608;2024-03-08T23:10:59;5.97;;;8.11;;
37169;SDS011;23062;13.952;100.608;2024-03-08T23:15:38;7.19;;;10.17;;
37169;SDS011;23062;13.952;100.608;2024-03-08T23:20:23;6.40;;;8.97;;
37169;SDS011;23062;13.952;100.608;2024-03-08T23:25:14;5.63;;;7.72;;
37169;SDS011;23062;13.952;100.608;2024-03-08T23:29:52;6.66;;;8.93;;
37169;SDS011;23062;13.952;100.608;2024-03-08T23:34:34;5.72;;;8.10;;
37169;SDS011;23062;13.952;100.608;2024-03-08T23:39:16;6.12;;;8.90;;
37169;SDS011;23062;13.952;100.608;2024-03-08T23:44:02;5.56;;;8.47;;
37169;SDS011;23062;13.952;100.608;2024-03-08T23:48:48;6.09;;;9.25;;
37169;SDS011;23062;13.952;100.608;2024-03-08T23:53:34;4.77;;;7.97;;
37169;SDS011;23062;13.952;100.608;2024-03-08T23:58:18;5.62;;;9.49;;
